sensor_id;sensor_type;location;lat;lon;timestamp;pressure;altitude;pressure_sealevel;temperature;humidity
64354;BME280;50681;53.334;-6.536;2023-03-01T00:10:04;103218.84;;;4.38;100.00
64354;BME280;50681;53.334;-6.536;2023-03-01T01:15:59;103191.00;;;4.48;100.00
64354;BME280;50681;53.334;-6.536;2023-03-01T01:29:04;103171.25;;;4.49;100.00
64354;BME280;50681;53.334;-6.536;2023-03-01T01:31:35;103181.88;;;4.57;100.00
64354;BME280;50681;53.334;-6.536;2023-03-01T01:34:15;103141.19;;;4.32;100.00
64354;BME280;50681;53.334;-6.536;2023-03-01T01:36:52;103152.81;;;4.39;100.00
64354;BME280;50681;53.334;-6.536;2023-03-01T01:39:26;103140.09;;;4.41;100.00
64354;BME280;50681;53.334;-6.536;2023-03-01T01:41:52;103143.28;;;4.36;100.00
64354;BME280;50681;53.334;-6.536;2023-03-01T01:44:26;103174.41;;;4.67;100.00
64354;BME280;50681;53.334;-6.536;2023-03-01T01:47:39;103137.59;;;4.54;100.00
64354;BME280;50681;53.334;-6.536;2023-03-01T01:50:17;103114.25;;;4.48;100.00
64354;BME280;50681;53.334;-6.536;2023-03-01T01:52:48;103124.41;;;4.68;100.00
64354;BME280;50681;53.334;-6.536;2023-03-01T01:55:19;103153.63;;;4.99;100.00
64354;BME280;50681;53.334;-6.536;2023-03-01T01:57:56;103092.63;;;4.80;100.00
64354;BME280;50681;53.334;-6.536;2023-03-01T02:00:25;103138.84;;;5.19;100.00
64354;BME280;50681;53.334;-6.536;2023-03-01T02:02:57;103106.53;;;5.05;100.00
64354;BME280;50681;53.334;-6.536;2023-03-01T02:07:59;103110.28;;;5.11;100.00
64354;BME280;50681;53.334;-6.536;2023-03-01T02:10:26;103126.44;;;5.18;100.00
64354;BME280;50681;53.334;-6.536;2023-03-01T02:12:54;103123.84;;;5.24;100.00
64354;BME280;50681;53.334;-6.536;2023-03-01T02:15:22;103100.22;;;5.13;100.00
64354;BME280;50681;53.334;-6.536;2023-03-01T02:17:54;103101.25;;;5.12;100.00
64354;BME280;50681;53.334;-6.536;2023-03-01T02:21:08;103124.84;;;5.23;100.00
64354;BME280;50681;53.334;-6.536;2023-03-01T02:23:38;103089.81;;;5.03;100.00
64354;BME280;50681;53.334;-6.536;2023-03-01T02:28:37;103095.81;;;5.05;100.00
64354;BME280;50681;53.334;-6.536;2023-03-01T02:31:11;103072.22;;;4.94;100.00
64354;BME280;50681;53.334;-6.536;2023-03-01T02:34:02;103046.75;;;4.83;100.00
64354;BME280;50681;53.334;-6.536;2023-03-01T02:36:40;103044.97;;;4.90;100.00
64354;BME280;50681;53.334;-6.536;2023-03-01T02:39:10;103064.06;;;5.02;100.00
64354;BME280;50681;53.334;-6.536;2023-03-01T02:41:41;103048.38;;;4.99;100.00
64354;BME280;50681;53.334;-6.536;2023-03-01T02:44:08;103052.50;;;5.02;100.00
64354;BME280;50681;53.334;-6.536;2023-03-01T02:46:46;103043.28;;;5.04;100.00
64354;BME280;50681;53.334;-6.536;2023-03-01T02:54:39;103017.19;;;4.91;100.00
64354;BME280;50681;53.334;-6.536;2023-03-01T02:57:05;103006.69;;;4.90;100.00
64354;BME280;50681;53.334;-6.536;2023-03-01T02:59:34;103043.16;;;5.12;100.00
64354;BME280;50681;53.334;-6.536;2023-03-01T03:02:05;103043.97;;;5.13;100.00
64354;BME280;50681;53.334;-6.536;2023-03-01T03:04:31;103040.22;;;5.07;100.00
64354;BME280;50681;53.334;-6.536;2023-03-01T03:06:57;103026.59;;;5.02;100.00
64354;BME280;50681;53.334;-6.536;2023-03-01T03:09:22;103035.88;;;5.06;100.00
64354;BME280;50681;53.334;-6.536;2023-03-01T03:11:48;103021.66;;;5.06;100.00
64354;BME280;50681;53.334;-6.536;2023-03-01T03:14:16;103043.03;;;5.21;100.00
64354;BME280;50681;53.334;-6.536;2023-03-01T03:16:48;103021.03;;;5.04;100.00
64354;BME280;50681;53.334;-6.536;2023-03-01T03:19:15;103046.53;;;5.21;100.00
64354;BME280;50681;53.334;-6.536;2023-03-01T03:21:41;103020.47;;;5.08;100.00
64354;BME280;50681;53.334;-6.536;2023-03-01T03:24:08;103020.91;;;5.12;100.00
64354;BME280;50681;53.334;-6.536;2023-03-01T03:26:33;103028.38;;;5.17;100.00
64354;BME280;50681;53.334;-6.536;2023-03-01T03:28:59;103002.75;;;5.07;100.00
64354;BME280;50681;53.334;-6.536;2023-03-01T03:31:27;103013.72;;;5.12;100.00
64354;BME280;50681;53.334;-6.536;2023-03-01T03:33:56;103019.69;;;5.14;100.00
64354;BME280;50681;53.334;-6.536;2023-03-01T03:36:26;103002.53;;;5.09;100.00
64354;BME280;50681;53.334;-6.536;2023-03-01T03:38:52;102996.16;;;5.10;100.00
64354;BME280;50681;53.334;-6.536;2023-03-01T03:41:18;102992.16;;;4.99;100.00
64354;BME280;50681;53.334;-6.536;2023-03-01T03:43:44;102996.75;;;5.05;100.00
64354;BME280;50681;53.334;-6.536;2023-03-01T03:46:10;103020.13;;;5.18;100.00
64354;BME280;50681;53.334;-6.536;2023-03-01T03:48:37;103043.28;;;5.26;100.00
64354;BME280;50681;53.334;-6.536;2023-03-01T03:51:14;102999.81;;;5.02;100.00
64354;BME280;50681;53.334;-6.536;2023-03-01T03:53:44;103014.91;;;5.10;100.00
64354;BME280;50681;53.334;-6.536;2023-03-01T03:56:10;103012.59;;;5.07;100.00
64354;BME280;50681;53.334;-6.536;2023-03-01T03:58:37;103043.69;;;5.23;100.00
64354;BME280;50681;53.334;-6.536;2023-03-01T04:01:04;103025.44;;;5.11;100.00
64354;BME280;50681;53.334;-6.536;2023-03-01T04:03:31;103031.31;;;5.22;100.00
64354;BME280;50681;53.334;-6.536;2023-03-01T04:06:01;102994.84;;;4.99;100.00
64354;BME280;50681;53.334;-6.536;2023-03-01T04:08:27;102987.94;;;4.90;100.00
64354;BME280;50681;53.334;-6.536;2023-03-01T04:10:58;102985.81;;;4.85;100.00
64354;BME280;50681;53.334;-6.536;2023-03-01T04:13:25;103034.13;;;5.13;100.00
64354;BME280;50681;53.334;-6.536;2023-03-01T04:15:51;102990.53;;;4.83;100.00
64354;BME280;50681;53.334;-6.536;2023-03-01T04:18:19;103004.94;;;5.04;100.00
64354;BME280;50681;53.334;-6.536;2023-03-01T04:20:45;103001.38;;;4.96;100.00
64354;BME280;50681;53.334;-6.536;2023-03-01T04:23:18;103024.34;;;5.06;100.00
64354;BME280;50681;53.334;-6.536;2023-03-01T04:25:50;103033.47;;;5.11;100.00
64354;BME280;50681;53.334;-6.536;2023-03-01T04:28:22;103016.69;;;5.03;100.00
64354;BME280;50681;53.334;-6.536;2023-03-01T04:30:50;103016.88;;;5.01;100.00
64354;BME280;50681;53.334;-6.536;2023-03-01T04:33:15;103018.94;;;4.99;100.00
64354;BME280;50681;53.334;-6.536;2023-03-01T04:35:41;103017.91;;;5.00;100.00
64354;BME280;50681;53.334;-6.536;2023-03-01T04:38:07;103014.84;;;5.03;100.00
64354;BME280;50681;53.334;-6.536;2023-03-01T04:40:33;103004.66;;;4.92;100.00
64354;BME280;50681;53.334;-6.536;2023-03-01T04:42:58;102999.94;;;4.94;100.00
64354;BME280;50681;53.334;-6.536;2023-03-01T04:45:24;103001.63;;;5.02;100.00
64354;BME280;50681;53.334;-6.536;2023-03-01T04:47:49;103001.84;;;5.00;100.00
64354;BME280;50681;53.334;-6.536;2023-03-01T04:50:18;102971.41;;;4.86;100.00
64354;BME280;50681;53.334;-6.536;2023-03-01T04:52:48;103004.78;;;5.05;100.00
64354;BME280;50681;53.334;-6.536;2023-03-01T04:55:14;102967.06;;;4.85;100.00
64354;BME280;50681;53.334;-6.536;2023-03-01T04:57:40;103011.53;;;5.01;100.00
64354;BME280;50681;53.334;-6.536;2023-03-01T05:00:08;103013.44;;;5.07;100.00
64354;BME280;50681;53.334;-6.536;2023-03-01T05:02:51;103003.94;;;5.05;100.00
64354;BME280;50681;53.334;-6.536;2023-03-01T05:05:27;102972.69;;;4.90;100.00
64354;BME280;50681;53.334;-6.536;2023-03-01T05:07:57;102950.06;;;4.71;100.00
64354;BME280;50681;53.334;-6.536;2023-03-01T05:10:31;102949.31;;;4.77;100.00
64354;BME280;50681;53.334;-6.536;2023-03-01T05:12:58;102992.78;;;5.01;100.00
64354;BME280;50681;53.334;-6.536;2023-03-01T05:15:28;102999.41;;;5.05;100.00
64354;BME280;50681;53.334;-6.536;2023-03-01T05:17:55;102964.03;;;4.88;100.00
64354;BME280;50681;53.334;-6.536;2023-03-01T05:20:26;102959.91;;;4.85;100.00
64354;BME280;50681;53.334;-6.536;2023-03-01T05:25:40;102969.00;;;4.91;100.00
64354;BME280;50681;53.334;-6.536;2023-03-01T05:28:14;102996.09;;;5.03;100.00
64354;BME280;50681;53.334;-6.536;2023-03-01T05:30:40;102970.47;;;4.94;100.00
64354;BME280;50681;53.334;-6.536;2023-03-01T05:33:06;102977.91;;;4.98;100.00
64354;BME280;50681;53.334;-6.536;2023-03-01T05:35:35;102994.06;;;5.05;100.00
64354;BME280;50681;53.334;-6.536;2023-03-01T05:38:01;102979.56;;;4.99;100.00
64354;BME280;50681;53.334;-6.536;2023-03-01T05:40:27;102958.50;;;4.90;100.00
64354;BME280;50681;53.334;-6.536;2023-03-01T05:42:55;102986.78;;;4.99;100.00
64354;BME280;50681;53.334;-6.536;2023-03-01T05:45:23;102992.19;;;5.06;100.00
64354;BME280;50681;53.334;-6.536;2023-03-01T05:47:49;102999.03;;;5.08;100.00
64354;BME280;50681;53.334;-6.536;2023-03-01T05:50:26;102965.50;;;4.91;100.00
64354;BME280;50681;53.334;-6.536;2023-03-01T05:53:01;102981.81;;;4.96;100.00
64354;BME280;50681;53.334;-6.536;2023-03-01T05:55:28;102982.63;;;4.96;100.00
64354;BME280;50681;53.334;-6.536;2023-03-01T05:57:53;103013.44;;;5.07;100.00
64354;BME280;50681;53.334;-6.536;2023-03-01T06:00:20;103012.81;;;5.05;100.00
64354;BME280;50681;53.334;-6.536;2023-03-01T06:02:48;103018.16;;;5.05;100.00
64354;BME280;50681;53.334;-6.536;2023-03-01T06:05:14;102994.31;;;4.89;100.00
64354;BME280;50681;53.334;-6.536;2023-03-01T06:07:40;103000.56;;;4.96;100.00
64354;BME280;50681;53.334;-6.536;2023-03-01T06:10:07;103023.94;;;5.09;100.00
64354;BME280;50681;53.334;-6.536;2023-03-01T06:12:34;103029.31;;;5.09;100.00
64354;BME280;50681;53.334;-6.536;2023-03-01T06:15:01;103029.13;;;5.10;100.00
64354;BME280;50681;53.334;-6.536;2023-03-01T06:17:29;103007.84;;;5.02;100.00
64354;BME280;50681;53.334;-6.536;2023-03-01T06:19:55;103005.06;;;4.95;100.00
64354;BME280;50681;53.334;-6.536;2023-03-01T06:22:21;103038.63;;;5.13;100.00
64354;BME280;50681;53.334;-6.536;2023-03-01T06:24:46;103001.75;;;4.93;100.00
64354;BME280;50681;53.334;-6.536;2023-03-01T06:27:12;103021.59;;;4.99;100.00
64354;BME280;50681;53.334;-6.536;2023-03-01T06:29:40;103037.34;;;5.09;100.00
64354;BME280;50681;53.334;-6.536;2023-03-01T06:32:08;102992.31;;;4.76;100.00
64354;BME280;50681;53.334;-6.536;2023-03-01T06:34:44;103037.94;;;5.04;100.00
64354;BME280;50681;53.334;-6.536;2023-03-01T06:37:18;103004.94;;;4.82;100.00
64354;BME280;50681;53.334;-6.536;2023-03-01T06:39:51;103000.97;;;4.78;100.00
64354;BME280;50681;53.334;-6.536;2023-03-01T06:42:16;102990.47;;;4.76;100.00
64354;BME280;50681;53.334;-6.536;2023-03-01T06:44:42;103029.38;;;4.94;100.00
64354;BME280;50681;53.334;-6.536;2023-03-01T06:47:10;103006.06;;;4.73;100.00
64354;BME280;50681;53.334;-6.536;2023-03-01T06:49:35;102977.88;;;4.55;100.00
64354;BME280;50681;53.334;-6.536;2023-03-01T06:57:58;103017.88;;;4.78;100.00
64354;BME280;50681;53.334;-6.536;2023-03-01T07:00:33;102965.25;;;4.49;100.00
64354;BME280;50681;53.334;-6.536;2023-03-01T07:03:00;103023.94;;;4.87;100.00
64354;BME280;50681;53.334;-6.536;2023-03-01T07:05:27;103019.59;;;4.86;100.00
64354;BME280;50681;53.334;-6.536;2023-03-01T07:07:53;103003.22;;;4.74;100.00
64354;BME280;50681;53.334;-6.536;2023-03-01T07:10:20;102987.91;;;4.68;100.00
64354;BME280;50681;53.334;-6.536;2023-03-01T07:12:45;103006.28;;;4.71;100.00
64354;BME280;50681;53.334;-6.536;2023-03-01T07:15:14;103016.50;;;4.82;100.00
64354;BME280;50681;53.334;-6.536;2023-03-01T07:17:40;103006.72;;;4.75;100.00
64354;BME280;50681;53.334;-6.536;2023-03-01T07:20:06;103030.13;;;4.88;100.00
64354;BME280;50681;53.334;-6.536;2023-03-01T07:22:31;102986.00;;;4.62;100.00
64354;BME280;50681;53.334;-6.536;2023-03-01T07:25:02;102998.03;;;4.73;100.00
64354;BME280;50681;53.334;-6.536;2023-03-01T07:27:27;102992.63;;;4.66;100.00
64354;BME280;50681;53.334;-6.536;2023-03-01T07:29:53;103024.41;;;4.91;100.00
64354;BME280;50681;53.334;-6.536;2023-03-01T07:32:18;103036.78;;;4.92;100.00
64354;BME280;50681;53.334;-6.536;2023-03-01T07:34:46;103009.22;;;4.76;100.00
64354;BME280;50681;53.334;-6.536;2023-03-01T07:37:12;103017.56;;;4.88;100.00
64354;BME280;50681;53.334;-6.536;2023-03-01T07:39:37;103027.50;;;4.94;100.00
64354;BME280;50681;53.334;-6.536;2023-03-01T07:42:02;102988.63;;;4.77;100.00
64354;BME280;50681;53.334;-6.536;2023-03-01T07:44:28;102992.56;;;4.81;100.00
64354;BME280;50681;53.334;-6.536;2023-03-01T07:47:02;102987.41;;;4.79;100.00
64354;BME280;50681;53.334;-6.536;2023-03-01T07:49:28;103015.41;;;4.98;100.00
64354;BME280;50681;53.334;-6.536;2023-03-01T07:51:54;102975.06;;;4.78;100.00
64354;BME280;50681;53.334;-6.536;2023-03-01T07:54:20;102975.81;;;4.72;100.00
64354;BME280;50681;53.334;-6.536;2023-03-01T07:57:11;103015.50;;;5.05;100.00
64354;BME280;50681;53.334;-6.536;2023-03-01T07:59:44;102967.41;;;4.75;100.00
64354;BME280;50681;53.334;-6.536;2023-03-01T08:02:25;102996.03;;;4.96;100.00
64354;BME280;50681;53.334;-6.536;2023-03-01T08:05:03;102995.66;;;4.99;100.00
64354;BME280;50681;53.334;-6.536;2023-03-01T08:07:29;102984.28;;;4.97;100.00
64354;BME280;50681;53.334;-6.536;2023-03-01T08:09:54;102992.78;;;5.01;100.00
64354;BME280;50681;53.334;-6.536;2023-03-01T08:12:20;102985.41;;;5.03;100.00
64354;BME280;50681;53.334;-6.536;2023-03-01T08:14:45;102991.81;;;5.09;100.00
64354;BME280;50681;53.334;-6.536;2023-03-01T08:17:13;103003.69;;;5.21;100.00
64354;BME280;50681;53.334;-6.536;2023-03-01T08:19:46;103009.09;;;5.28;100.00
64354;BME280;50681;53.334;-6.536;2023-03-01T08:22:14;103018.22;;;5.34;100.00
64354;BME280;50681;53.334;-6.536;2023-03-01T08:24:40;103000.38;;;5.19;100.00
64354;BME280;50681;53.334;-6.536;2023-03-01T08:27:05;103020.28;;;5.38;100.00
64354;BME280;50681;53.334;-6.536;2023-03-01T08:29:32;103012.00;;;5.33;100.00
64354;BME280;50681;53.334;-6.536;2023-03-01T08:31:58;103019.53;;;5.44;100.00
64354;BME280;50681;53.334;-6.536;2023-03-01T08:34:23;103006.00;;;5.31;100.00
64354;BME280;50681;53.334;-6.536;2023-03-01T08:36:49;103019.91;;;5.41;100.00
64354;BME280;50681;53.334;-6.536;2023-03-01T08:39:18;103017.69;;;5.45;100.00
64354;BME280;50681;53.334;-6.536;2023-03-01T08:41:45;103002.53;;;5.30;100.00
64354;BME280;50681;53.334;-6.536;2023-03-01T08:44:12;103025.34;;;5.48;100.00
64354;BME280;50681;53.334;-6.536;2023-03-01T08:46:40;102996.34;;;5.30;100.00
64354;BME280;50681;53.334;-6.536;2023-03-01T08:49:11;103028.66;;;5.50;100.00
64354;BME280;50681;53.334;-6.536;2023-03-01T08:51:37;103033.13;;;5.43;100.00
64354;BME280;50681;53.334;-6.536;2023-03-01T08:54:08;103029.84;;;5.48;100.00
64354;BME280;50681;53.334;-6.536;2023-03-01T08:56:35;103014.06;;;5.31;100.00
64354;BME280;50681;53.334;-6.536;2023-03-01T08:59:00;103018.47;;;5.39;100.00
64354;BME280;50681;53.334;-6.536;2023-03-01T09:01:33;103012.44;;;5.30;100.00
64354;BME280;50681;53.334;-6.536;2023-03-01T09:03:59;103048.47;;;5.56;100.00
64354;BME280;50681;53.334;-6.536;2023-03-01T09:06:33;103010.47;;;5.45;100.00
64354;BME280;50681;53.334;-6.536;2023-03-01T09:08:59;103036.22;;;5.68;100.00
64354;BME280;50681;53.334;-6.536;2023-03-01T09:11:25;103027.91;;;5.63;100.00
64354;BME280;50681;53.334;-6.536;2023-03-01T09:13:50;103025.50;;;5.68;100.00
64354;BME280;50681;53.334;-6.536;2023-03-01T09:16:18;103008.78;;;5.66;100.00
64354;BME280;50681;53.334;-6.536;2023-03-01T09:18:45;103019.16;;;5.76;100.00
64354;BME280;50681;53.334;-6.536;2023-03-01T09:21:14;103023.53;;;5.84;100.00
64354;BME280;50681;53.334;-6.536;2023-03-01T09:23:45;103013.69;;;5.91;100.00
64354;BME280;50681;53.334;-6.536;2023-03-01T09:26:16;103036.50;;;6.02;100.00
64354;BME280;50681;53.334;-6.536;2023-03-01T09:28:42;103031.59;;;6.12;100.00
64354;BME280;50681;53.334;-6.536;2023-03-01T09:31:09;103013.41;;;6.08;100.00
64354;BME280;50681;53.334;-6.536;2023-03-01T09:33:38;103020.41;;;6.09;100.00
64354;BME280;50681;53.334;-6.536;2023-03-01T09:36:06;103034.47;;;6.11;100.00
64354;BME280;50681;53.334;-6.536;2023-03-01T09:38:32;103020.63;;;6.07;100.00
64354;BME280;50681;53.334;-6.536;2023-03-01T09:40:59;103013.00;;;6.11;100.00
64354;BME280;50681;53.334;-6.536;2023-03-01T09:46:14;103048.16;;;6.23;100.00
64354;BME280;50681;53.334;-6.536;2023-03-01T09:48:49;103042.59;;;6.24;100.00
64354;BME280;50681;53.334;-6.536;2023-03-01T09:51:35;103040.34;;;6.28;100.00
64354;BME280;50681;53.334;-6.536;2023-03-01T09:54:02;103035.84;;;6.35;100.00
64354;BME280;50681;53.334;-6.536;2023-03-01T09:56:39;103036.25;;;6.39;100.00
64354;BME280;50681;53.334;-6.536;2023-03-01T09:59:34;103044.16;;;6.47;100.00
64354;BME280;50681;53.334;-6.536;2023-03-01T10:02:23;103028.91;;;6.54;100.00
64354;BME280;50681;53.334;-6.536;2023-03-01T10:05:04;102999.75;;;6.44;100.00
64354;BME280;50681;53.334;-6.536;2023-03-01T10:07:47;103017.19;;;6.69;100.00
64354;BME280;50681;53.334;-6.536;2023-03-01T10:10:39;103013.41;;;6.56;100.00
64354;BME280;50681;53.334;-6.536;2023-03-01T10:13:16;102983.84;;;6.43;100.00
64354;BME280;50681;53.334;-6.536;2023-03-01T10:15:50;102997.44;;;6.35;100.00
64354;BME280;50681;53.334;-6.536;2023-03-01T10:18:23;102985.78;;;6.14;100.00
64354;BME280;50681;53.334;-6.536;2023-03-01T10:20:56;103008.03;;;6.08;100.00
64354;BME280;50681;53.334;-6.536;2023-03-01T10:23:25;103026.88;;;6.21;100.00
64354;BME280;50681;53.334;-6.536;2023-03-01T10:26:38;103017.56;;;6.17;100.00
64354;BME280;50681;53.334;-6.536;2023-03-01T10:31:54;103011.97;;;6.12;100.00
64354;BME280;50681;53.334;-6.536;2023-03-01T10:34:28;103003.03;;;6.33;100.00
64354;BME280;50681;53.334;-6.536;2023-03-01T10:36:58;102992.38;;;6.67;100.00
64354;BME280;50681;53.334;-6.536;2023-03-01T10:42:49;102975.50;;;7.00;100.00
64354;BME280;50681;53.334;-6.536;2023-03-01T10:45:36;103011.31;;;7.14;100.00
64354;BME280;50681;53.334;-6.536;2023-03-01T10:50:34;103002.41;;;7.27;100.00
64354;BME280;50681;53.334;-6.536;2023-03-01T10:53:02;102997.25;;;7.18;100.00
64354;BME280;50681;53.334;-6.536;2023-03-01T10:55:42;102985.03;;;7.09;100.00
64354;BME280;50681;53.334;-6.536;2023-03-01T10:58:21;102990.63;;;7.08;100.00
64354;BME280;50681;53.334;-6.536;2023-03-01T11:01:06;102990.81;;;7.06;100.00
64354;BME280;50681;53.334;-6.536;2023-03-01T11:04:11;102986.25;;;7.00;100.00
64354;BME280;50681;53.334;-6.536;2023-03-01T11:06:38;102990.22;;;7.11;100.00
64354;BME280;50681;53.334;-6.536;2023-03-01T11:09:21;102988.53;;;6.96;100.00
64354;BME280;50681;53.334;-6.536;2023-03-01T11:11:55;102968.19;;;6.46;100.00
64354;BME280;50681;53.334;-6.536;2023-03-01T11:14:23;102978.13;;;6.53;100.00
64354;BME280;50681;53.334;-6.536;2023-03-01T11:19:29;102991.31;;;6.47;100.00
64354;BME280;50681;53.334;-6.536;2023-03-01T11:22:04;102986.97;;;6.46;100.00
64354;BME280;50681;53.334;-6.536;2023-03-01T11:24:42;102989.84;;;6.45;100.00
64354;BME280;50681;53.334;-6.536;2023-03-01T11:27:23;102974.41;;;6.54;100.00
64354;BME280;50681;53.334;-6.536;2023-03-01T11:29:59;102983.13;;;6.69;100.00
64354;BME280;50681;53.334;-6.536;2023-03-01T11:32:33;102977.75;;;6.76;100.00
64354;BME280;50681;53.334;-6.536;2023-03-01T11:35:10;102962.88;;;6.73;100.00
64354;BME280;50681;53.334;-6.536;2023-03-01T11:37:46;102960.19;;;6.80;100.00
64354;BME280;50681;53.334;-6.536;2023-03-01T11:40:27;102950.28;;;6.87;100.00
64354;BME280;50681;53.334;-6.536;2023-03-01T11:51:09;102962.09;;;7.27;100.00
64354;BME280;50681;53.334;-6.536;2023-03-01T11:59:34;102953.41;;;7.25;100.00
64354;BME280;50681;53.334;-6.536;2023-03-01T12:10:29;102919.31;;;7.39;100.00
64354;BME280;50681;53.334;-6.536;2023-03-01T12:15:39;102938.25;;;7.77;100.00
64354;BME280;50681;53.334;-6.536;2023-03-01T12:18:37;102939.28;;;7.76;100.00
64354;BME280;50681;53.334;-6.536;2023-03-01T12:26:33;102913.53;;;8.01;100.00
64354;BME280;50681;53.334;-6.536;2023-03-01T12:31:43;102900.19;;;8.19;100.00
64354;BME280;50681;53.334;-6.536;2023-03-01T12:48:50;102849.22;;;8.31;100.00
64354;BME280;50681;53.334;-6.536;2023-03-01T12:51:24;102826.56;;;8.14;100.00
64354;BME280;50681;53.334;-6.536;2023-03-01T12:53:56;102838.13;;;8.46;100.00
64354;BME280;50681;53.334;-6.536;2023-03-01T12:56:25;102831.41;;;8.30;100.00
64354;BME280;50681;53.334;-6.536;2023-03-01T13:01:58;102833.66;;;8.01;100.00
64354;BME280;50681;53.334;-6.536;2023-03-01T13:17:54;102821.00;;;8.73;100.00
64354;BME280;50681;53.334;-6.536;2023-03-01T13:20:31;102784.00;;;8.61;100.00
64354;BME280;50681;53.334;-6.536;2023-03-01T13:28:45;102807.97;;;8.70;100.00
64354;BME280;50681;53.334;-6.536;2023-03-01T13:33:55;102796.59;;;8.35;100.00
64354;BME280;50681;53.334;-6.536;2023-03-01T13:38:57;102805.63;;;8.16;100.00
64354;BME280;50681;53.334;-6.536;2023-03-01T13:49:48;102797.06;;;8.26;100.00
64354;BME280;50681;53.334;-6.536;2023-03-01T13:52:40;102796.59;;;8.35;100.00
64354;BME280;50681;53.334;-6.536;2023-03-01T13:55:21;102791.47;;;8.59;100.00
64354;BME280;50681;53.334;-6.536;2023-03-01T13:57:51;102777.16;;;8.84;100.00
64354;BME280;50681;53.334;-6.536;2023-03-01T14:00:32;102772.25;;;9.00;100.00
64354;BME280;50681;53.334;-6.536;2023-03-01T14:03:05;102791.25;;;9.05;100.00
64354;BME280;50681;53.334;-6.536;2023-03-01T14:05:31;102771.78;;;8.84;100.00
64354;BME280;50681;53.334;-6.536;2023-03-01T14:07:57;102785.97;;;8.73;100.00
64354;BME280;50681;53.334;-6.536;2023-03-01T14:10:28;102780.91;;;8.83;100.00
64354;BME280;50681;53.334;-6.536;2023-03-01T14:15:41;102756.81;;;8.37;100.00
64354;BME280;50681;53.334;-6.536;2023-03-01T14:18:24;102780.25;;;8.62;100.00
64354;BME280;50681;53.334;-6.536;2023-03-01T14:20:54;102790.88;;;8.57;100.00
64354;BME280;50681;53.334;-6.536;2023-03-01T14:23:29;102770.06;;;8.39;100.00
64354;BME280;50681;53.334;-6.536;2023-03-01T14:25:56;102778.28;;;8.19;100.00
64354;BME280;50681;53.334;-6.536;2023-03-01T14:28:26;102789.66;;;8.21;100.00
64354;BME280;50681;53.334;-6.536;2023-03-01T14:30:55;102768.66;;;8.04;100.00
64354;BME280;50681;53.334;-6.536;2023-03-01T14:33:29;102782.28;;;8.09;100.00
64354;BME280;50681;53.334;-6.536;2023-03-01T14:36:08;102755.59;;;8.08;100.00
64354;BME280;50681;53.334;-6.536;2023-03-01T14:38:42;102769.00;;;8.15;100.00
64354;BME280;50681;53.334;-6.536;2023-03-01T14:41:16;102769.41;;;8.44;100.00
64354;BME280;50681;53.334;-6.536;2023-03-01T14:43:46;102746.94;;;8.57;100.00
64354;BME280;50681;53.334;-6.536;2023-03-01T14:48:44;102759.53;;;8.37;100.00
64354;BME280;50681;53.334;-6.536;2023-03-01T14:51:10;102744.56;;;8.16;100.00
64354;BME280;50681;53.334;-6.536;2023-03-01T14:53:36;102730.66;;;7.94;100.00
64354;BME280;50681;53.334;-6.536;2023-03-01T14:56:02;102749.72;;;8.18;100.00
64354;BME280;50681;53.334;-6.536;2023-03-01T14:58:28;102714.44;;;8.01;100.00
64354;BME280;50681;53.334;-6.536;2023-03-01T15:01:15;102732.13;;;8.15;100.00
64354;BME280;50681;53.334;-6.536;2023-03-01T15:03:46;102736.03;;;8.19;100.00
64354;BME280;50681;53.334;-6.536;2023-03-01T15:06:15;102727.81;;;8.39;100.00
64354;BME280;50681;53.334;-6.536;2023-03-01T15:08:45;102732.16;;;8.41;100.00
64354;BME280;50681;53.334;-6.536;2023-03-01T15:11:20;102725.88;;;8.47;100.00
64354;BME280;50681;53.334;-6.536;2023-03-01T15:13:48;102708.88;;;7.95;100.00
64354;BME280;50681;53.334;-6.536;2023-03-01T15:16:16;102728.66;;;7.83;100.00
64354;BME280;50681;53.334;-6.536;2023-03-01T15:19:01;102710.22;;;7.54;100.00
64354;BME280;50681;53.334;-6.536;2023-03-01T15:21:32;102716.88;;;7.45;100.00
64354;BME280;50681;53.334;-6.536;2023-03-01T15:24:17;102709.13;;;7.16;100.00
64354;BME280;50681;53.334;-6.536;2023-03-01T15:26:49;102682.38;;;6.83;100.00
64354;BME280;50681;53.334;-6.536;2023-03-01T15:29:22;102697.00;;;7.00;100.00
64354;BME280;50681;53.334;-6.536;2023-03-01T15:32:06;102696.97;;;7.07;100.00
64354;BME280;50681;53.334;-6.536;2023-03-01T15:34:45;102711.81;;;7.62;100.00
64354;BME280;50681;53.334;-6.536;2023-03-01T15:37:40;102691.16;;;7.88;100.00
64354;BME280;50681;53.334;-6.536;2023-03-01T15:40:26;102701.41;;;8.04;100.00
64354;BME280;50681;53.334;-6.536;2023-03-01T15:43:04;102639.34;;;7.74;100.00
64354;BME280;50681;53.334;-6.536;2023-03-01T15:45:34;102675.91;;;7.82;100.00
64354;BME280;50681;53.334;-6.536;2023-03-01T15:48:04;102669.63;;;7.62;100.00
64354;BME280;50681;53.334;-6.536;2023-03-01T15:50:35;102660.81;;;7.48;100.00
64354;BME280;50681;53.334;-6.536;2023-03-01T15:53:09;102649.53;;;7.33;100.00
64354;BME280;50681;53.334;-6.536;2023-03-01T15:55:36;102653.91;;;7.27;100.00
64354;BME280;50681;53.334;-6.536;2023-03-01T15:58:19;102652.88;;;7.21;100.00
64354;BME280;50681;53.334;-6.536;2023-03-01T16:00:46;102648.38;;;7.15;100.00
64354;BME280;50681;53.334;-6.536;2023-03-01T16:03:14;102628.94;;;7.13;100.00
64354;BME280;50681;53.334;-6.536;2023-03-01T16:05:41;102641.75;;;7.18;100.00
64354;BME280;50681;53.334;-6.536;2023-03-01T16:08:07;102629.44;;;7.03;100.00
64354;BME280;50681;53.334;-6.536;2023-03-01T16:10:33;102614.97;;;6.98;100.00
64354;BME280;50681;53.334;-6.536;2023-03-01T16:13:02;102633.72;;;7.11;100.00
64354;BME280;50681;53.334;-6.536;2023-03-01T16:15:31;102644.47;;;7.11;100.00
64354;BME280;50681;53.334;-6.536;2023-03-01T16:18:01;102614.22;;;6.77;100.00
64354;BME280;50681;53.334;-6.536;2023-03-01T16:20:28;102612.41;;;6.71;100.00
64354;BME280;50681;53.334;-6.536;2023-03-01T16:22:58;102608.09;;;6.56;100.00
64354;BME280;50681;53.334;-6.536;2023-03-01T16:25:25;102603.38;;;6.45;100.00